Time;durP1;ratioP1;P1;durP2;ratioP2;P2;SDS_P1;SDS_P2;PMS_P1;PMS_P2;Temp;Humidity;BMP_temperature;BMP_pressure;BME280_temperature;BME280_humidity;BME280_pressure;Samples;Min_cycle;Max_cycle;Signal;HPM_P1;HPM_P2
2024/01/18 00:01:13;;;;;;;0.20;0.20;;;;;;;-1.56;100.00;93942.06;6114634;23;20025;-74
2024/01/18 00:03:59;;;;;;;0.20;0.20;;;;;;;-1.58;100.00;93944.13;6134683;23;20433;-75
2024/01/18 00:06:45;;;;;;;0.20;0.20;;;;;;;-1.51;100.00;93941.38;6134473;23;20033;-77
2024/01/18 00:09:31;;;;;;;0.20;0.20;;;;;;;-1.53;100.00;93946.84;6115631;23;20044;-74
2024/01/18 00:12:17;;;;;;;0.20;0.20;;;;;;;-1.55;100.00;93933.19;6134278;23;20029;-74
2024/01/18 00:15:03;;;;;;;0.20;0.20;;;;;;;-1.52;100.00;93945.81;6133578;23;20036;-77
2024/01/18 00:17:49;;;;;;;0.20;0.20;;;;;;;-1.56;100.00;93942.06;6134142;23;20861;-75
2024/01/18 00:20:35;;;;;;;0.20;0.20;;;;;;;-1.43;100.00;93946.25;6135226;23;20104;-75
2024/01/18 00:23:21;;;;;;;0.20;0.20;;;;;;;-1.39;100.00;93955.25;6132536;23;20189;-75
2024/01/18 00:26:07;;;;;;;0.20;0.20;;;;;;;-1.37;100.00;93957.63;6134475;23;20348;-75
2024/01/18 00:28:53;;;;;;;0.28;0.28;;;;;;;-1.44;100.00;93948.06;6134109;23;20048;-75
2024/01/18 00:31:39;;;;;;;0.20;0.20;;;;;;;-1.76;100.00;93949.56;6133721;23;20068;-77
2024/01/18 00:34:25;;;;;;;0.20;0.20;;;;;;;-1.88;100.00;93943.53;6113559;23;20029;-75
2024/01/18 00:37:11;;;;;;;0.20;0.20;;;;;;;-1.84;100.00;93958.59;6132937;23;20457;-75
2024/01/18 00:39:57;;;;;;;0.30;0.30;;;;;;;-1.69;100.00;93955.47;6134473;23;20021;-75
2024/01/18 00:42:43;;;;;;;0.20;0.20;;;;;;;-1.59;100.00;93963.53;6133200;23;20026;-77
2024/01/18 00:45:29;;;;;;;0.20;0.20;;;;;;;-1.57;100.00;93971.94;6136427;23;20365;-77
2024/01/18 00:48:14;;;;;;;0.20;0.20;;;;;;;-1.63;100.00;93970.28;6135195;23;20317;-77
2024/01/18 00:51:00;;;;;;;0.20;0.20;;;;;;;-1.74;100.00;93979.75;6136040;23;20234;-75
2024/01/18 00:53:46;;;;;;;0.20;0.20;;;;;;;-1.75;100.00;93985.25;6113324;23;20050;-78
2024/01/18 00:56:32;;;;;;;0.20;0.20;;;;;;;-1.86;100.00;93991.31;6131602;23;20014;-76
2024/01/18 00:59:18;;;;;;;0.20;0.20;;;;;;;-1.94;100.00;94000.34;6113418;23;20341;-78
2024/01/18 01:02:05;;;;;;;0.20;0.20;;;;;;;-1.97;100.00;94019.13;6132046;23;20051;-76
2024/01/18 01:04:51;;;;;;;0.20;0.20;;;;;;;-1.95;100.00;94006.56;6132387;23;20044;-78
2024/01/18 01:07:37;;;;;;;0.20;0.20;;;;;;;-1.98;100.00;94026.19;6134059;23;20021;-76
2024/01/18 01:10:23;;;;;;;0.20;0.20;;;;;;;-2.08;100.00;94007.63;6133718;23;20429;-76
2024/01/18 01:13:09;;;;;;;0.20;0.20;;;;;;;-2.07;100.00;94016.28;6132719;23;20100;-75
2024/01/18 01:15:55;;;;;;;0.20;0.20;;;;;;;-2.03;100.00;94001.69;6134586;23;20107;-77
2024/01/18 01:18:41;;;;;;;0.20;0.20;;;;;;;-1.97;100.00;94003.41;6131832;23;20456;-77
2024/01/18 01:21:27;;;;;;;0.20;0.20;;;;;;;-2.21;100.00;94004.44;6133256;23;20083;-75
2024/01/18 01:24:13;;;;;;;0.20;0.20;;;;;;;-2.03;100.00;94015.59;6133025;23;20101;-76
2024/01/18 01:26:58;;;;;;;0.20;0.20;;;;;;;-2.01;100.00;94004.91;6113668;23;20235;-75
2024/01/18 01:29:44;;;;;;;0.10;0.10;;;;;;;-1.91;100.00;94025.28;6135542;23;20413;-76
2024/01/18 01:32:30;;;;;;;0.20;0.20;;;;;;;-1.88;100.00;94019.56;6103573;23;20026;-75
2024/01/18 01:35:16;;;;;;;0.20;0.20;;;;;;;-1.94;100.00;94020.50;6104078;23;20062;-77
2024/01/18 01:38:03;;;;;;;0.20;0.20;;;;;;;-1.87;100.00;94029.81;6105197;23;20033;-76
2024/01/18 01:40:48;;;;;;;0.30;0.30;;;;;;;-1.80;100.00;94019.22;6103450;23;20688;-75
2024/01/18 01:43:34;;;;;;;0.20;0.20;;;;;;;-1.80;100.00;94040.19;6103033;23;20033;-75
2024/01/18 01:46:20;;;;;;;0.25;0.25;;;;;;;-1.77;100.00;94050.22;6104672;23;20032;-75
2024/01/18 01:49:06;;;;;;;0.20;0.20;;;;;;;-1.81;100.00;94055.13;6102815;23;20026;-76
2024/01/18 01:51:53;;;;;;;0.20;0.20;;;;;;;-1.85;100.00;94058.44;6104945;23;20026;-75
2024/01/18 01:54:39;;;;;;;0.20;0.20;;;;;;;-1.88;100.00;94054.44;6104892;23;20214;-74
2024/01/18 01:57:26;;;;;;;0.20;0.20;;;;;;;-1.90;100.00;94063.56;6104317;23;20045;-75
2024/01/18 02:00:14;;;;;;;0.20;0.20;;;;;;;-1.91;100.00;94059.34;6106378;23;20022;-75
2024/01/18 02:03:00;;;;;;;0.20;0.20;;;;;;;-1.91;100.00;94075.09;6105288;23;20351;-77
2024/01/18 02:05:46;;;;;;;0.20;0.20;;;;;;;-1.89;100.00;94078.28;6105628;23;20017;-77
2024/01/18 02:08:32;;;;;;;0.20;0.20;;;;;;;-2.02;100.00;94068.84;6105975;23;20326;-75
2024/01/18 02:11:17;;;;;;;0.20;0.20;;;;;;;-2.09;100.00;94061.09;6105299;23;20022;-76
2024/01/18 02:14:03;;;;;;;0.20;0.20;;;;;;;-1.99;100.00;94060.50;6105280;23;20366;-77
2024/01/18 02:16:49;;;;;;;0.20;0.20;;;;;;;-1.95;100.00;94077.34;6104396;23;20021;-74
2024/01/18 02:19:35;;;;;;;0.20;0.20;;;;;;;-1.92;100.00;94079.53;6103045;23;20411;-76
2024/01/18 02:22:26;;;;;;;0.20;0.20;;;;;;;-2.01;100.00;94089.56;6104801;23;20030;-76
2024/01/18 02:25:22;;;;;;;0.20;0.20;;;;;;;-2.01;100.00;94086.16;6105111;23;20325;-75
2024/01/18 02:28:08;;;;;;;0.20;0.20;;;;;;;-2.20;100.00;94072.34;6103913;23;20049;-75
2024/01/18 02:30:57;;;;;;;0.10;0.10;;;;;;;-2.13;100.00;94075.66;6116088;23;20452;-75
2024/01/18 02:33:43;;;;;;;0.20;0.20;;;;;;;-2.12;100.00;94085.09;6137316;23;20083;-75
2024/01/18 02:36:28;;;;;;;0.20;0.20;;;;;;;-2.35;100.00;94057.06;6134817;23;20044;-76
2024/01/18 02:39:14;;;;;;;0.20;0.20;;;;;;;-2.37;100.00;94050.47;6136247;23;20145;-75
2024/01/18 02:42:02;;;;;;;0.22;0.22;;;;;;;-2.25;100.00;94067.81;6135337;23;20017;-76
2024/01/18 02:44:48;;;;;;;0.20;0.20;;;;;;;-2.21;100.00;94064.72;6137063;23;20025;-75
2024/01/18 02:47:35;;;;;;;0.20;0.20;;;;;;;-2.18;100.00;94064.25;6134168;23;20021;-77
2024/01/18 02:50:21;;;;;;;0.20;0.20;;;;;;;-2.53;100.00;94060.59;6135884;23;20088;-74
2024/01/18 02:53:07;;;;;;;0.20;0.20;;;;;;;-2.28;100.00;94070.84;6134516;23;20022;-75
2024/01/18 02:55:53;;;;;;;0.20;0.20;;;;;;;-2.16;100.00;94081.34;6114662;23;20018;-74
2024/01/18 02:58:38;;;;;;;0.20;0.20;;;;;;;-2.20;100.00;94068.94;6135890;23;20052;-75
2024/01/18 03:01:24;;;;;;;0.17;0.17;;;;;;;-2.42;100.00;94066.06;6135368;23;20268;-74
2024/01/18 03:04:10;;;;;;;0.20;0.20;;;;;;;-2.48;100.00;94053.88;6136060;23;20560;-74
2024/01/18 03:06:56;;;;;;;0.20;0.20;;;;;;;-2.39;100.00;94065.63;6134091;23;20021;-76
2024/01/18 03:09:42;;;;;;;0.20;0.20;;;;;;;-2.28;100.00;94068.22;6136404;23;20021;-75
2024/01/18 03:12:34;;;;;;;0.20;0.20;;;;;;;-2.20;100.00;94074.97;6137815;23;20308;-74
2024/01/18 03:15:20;;;;;;;0.20;0.20;;;;;;;-2.17;100.00;94084.22;6134249;23;20697;-74
2024/01/18 03:18:06;;;;;;;0.20;0.20;;;;;;;-2.13;100.00;94080.88;6135627;23;20440;-76
2024/01/18 03:20:52;;;;;;;0.20;0.20;;;;;;;-2.14;100.00;94071.44;6136636;23;20356;-75
2024/01/18 03:23:38;;;;;;;0.20;0.20;;;;;;;-2.09;100.00;94076.00;6114786;23;20361;-75
2024/01/18 03:26:24;;;;;;;0.20;0.20;;;;;;;-2.11;100.00;94076.22;6136847;23;20056;-74
2024/01/18 03:29:10;;;;;;;0.20;0.20;;;;;;;-2.13;100.00;94085.34;6134856;23;20025;-75
2024/01/18 03:31:55;;;;;;;0.20;0.20;;;;;;;-2.15;100.00;94098.66;6134874;23;20032;-74
2024/01/18 03:34:41;;;;;;;0.20;0.20;;;;;;;-2.17;100.00;94087.63;6135731;23;20092;-76
2024/01/18 03:37:27;;;;;;;0.20;0.20;;;;;;;-2.16;100.00;94078.75;6133458;23;20519;-77
2024/01/18 03:40:15;;;;;;;0.17;0.17;;;;;;;-2.12;100.00;94074.63;6134899;23;20329;-75
2024/01/18 03:43:01;;;;;;;0.13;0.13;;;;;;;-2.14;100.00;94073.25;6135658;23;20021;-76
2024/01/18 03:45:47;;;;;;;0.20;0.20;;;;;;;-2.16;100.00;94083.19;6133950;23;20025;-77
2024/01/18 03:48:33;;;;;;;0.20;0.20;;;;;;;-2.16;100.00;94086.59;6130931;23;20136;-75
2024/01/18 03:51:19;;;;;;;0.10;0.10;;;;;;;-2.18;100.00;94080.75;6137412;23;20022;-76
2024/01/18 03:54:04;;;;;;;0.20;0.20;;;;;;;-2.27;100.00;94079.50;6135367;23;20021;-74
2024/01/18 03:56:50;;;;;;;0.20;0.20;;;;;;;-2.30;100.00;94075.53;6133394;23;20032;-77
2024/01/18 03:59:37;;;;;;;0.20;0.20;;;;;;;-2.28;100.00;94073.47;6134011;23;20025;-75
2024/01/18 04:02:23;;;;;;;0.20;0.20;;;;;;;-2.22;100.00;94063.91;6134355;23;20500;-75
2024/01/18 04:05:08;;;;;;;0.22;0.22;;;;;;;-2.21;100.00;94073.38;6136135;23;20029;-74
2024/01/18 04:07:54;;;;;;;0.20;0.20;;;;;;;-2.25;100.00;94072.25;6134873;23;20044;-74
2024/01/18 04:10:41;;;;;;;0.20;0.20;;;;;;;-2.23;100.00;94078.03;6113697;23;20021;-75
2024/01/18 04:13:27;;;;;;;0.20;0.20;;;;;;;-2.29;100.00;94077.13;6135324;23;20026;-74
2024/01/18 04:16:13;;;;;;;0.20;0.20;;;;;;;-2.27;100.00;94080.31;6134781;23;20108;-75
2024/01/18 04:18:59;;;;;;;0.20;0.20;;;;;;;-2.31;100.00;94081.00;6113455;23;20021;-75
2024/01/18 04:21:45;;;;;;;0.20;0.20;;;;;;;-2.33;100.00;94085.69;6131712;23;20405;-79
2024/01/18 04:24:32;;;;;;;0.20;0.20;;;;;;;-2.30;100.00;94087.84;6135484;23;20021;-75
2024/01/18 04:27:18;;;;;;;0.20;0.20;;;;;;;-2.31;100.00;94100.13;6130579;23;20029;-73
2024/01/18 04:30:04;;;;;;;0.20;0.20;;;;;;;-2.23;100.00;94106.88;6133861;23;20025;-77
2024/01/18 04:32:50;;;;;;;0.20;0.20;;;;;;;-2.59;100.00;94098.13;6104844;23;20025;-74
2024/01/18 04:35:36;;;;;;;0.20;0.20;;;;;;;-2.42;100.00;94118.44;6104290;23;20405;-74
2024/01/18 04:38:22;;;;;;;0.20;0.20;;;;;;;-2.34;100.00;94120.72;6103927;23;20022;-74
2024/01/18 04:41:09;;;;;;;0.20;0.20;;;;;;;-2.34;100.00;94120.72;6105683;23;20874;-75
2024/01/18 04:43:55;;;;;;;0.20;0.20;;;;;;;-2.27;100.00;94130.09;6103997;23;20022;-74
2024/01/18 04:46:41;;;;;;;0.20;0.20;;;;;;;-2.23;100.00;94130.44;6104344;23;20053;-77
2024/01/18 04:49:27;;;;;;;0.20;0.20;;;;;;;-2.21;100.00;94136.25;6105196;23;20043;-74
2024/01/18 04:52:13;;;;;;;0.20;0.20;;;;;;;-2.21;100.00;94135.47;6102943;23;20357;-75
2024/01/18 04:55:03;;;;;;;0.20;0.20;;;;;;;-2.24;100.00;94134.09;6104590;23;20026;-75
2024/01/18 04:57:49;;;;;;;0.20;0.20;;;;;;;-2.31;100.00;94149.13;6104891;23;20048;-75
2024/01/18 05:00:35;;;;;;;0.20;0.20;;;;;;;-2.26;100.00;94157.91;6107790;23;20344;-74
2024/01/18 05:03:21;;;;;;;0.20;0.20;;;;;;;-2.31;100.00;94170.06;6134433;23;20021;-74
2024/01/18 05:06:08;;;;;;;0.20;0.20;;;;;;;-2.37;100.00;94165.72;6135992;23;20608;-74
2024/01/18 05:08:54;;;;;;;0.20;0.20;;;;;;;-2.42;100.00;94166.38;6136502;23;20374;-75
2024/01/18 05:11:40;;;;;;;0.20;0.20;;;;;;;-2.44;100.00;94178.13;6136136;23;20363;-75
2024/01/18 05:14:26;;;;;;;0.20;0.20;;;;;;;-2.41;100.00;94175.88;6136546;23;20734;-74
2024/01/18 05:17:12;;;;;;;0.20;0.20;;;;;;;-2.47;100.00;94175.94;6113999;23;20572;-75
2024/01/18 05:19:58;;;;;;;0.20;0.20;;;;;;;-2.41;100.00;94180.28;6138690;23;20029;-74
2024/01/18 05:22:44;;;;;;;0.20;0.20;;;;;;;-2.45;100.00;94173.91;6137962;23;20095;-76
2024/01/18 05:25:30;;;;;;;0.20;0.20;;;;;;;-2.40;100.00;94171.44;6137387;23;20112;-75
2024/01/18 05:28:16;;;;;;;0.20;0.20;;;;;;;-2.43;100.00;94182.31;6135691;23;20040;-73
2024/01/18 05:31:02;;;;;;;0.20;0.20;;;;;;;-2.41;100.00;94180.28;6138646;23;20028;-76
2024/01/18 05:33:47;;;;;;;0.20;0.20;;;;;;;-2.45;100.00;94181.75;6135039;23;20022;-73
2024/01/18 05:36:33;;;;;;;0.20;0.20;;;;;;;-2.46;100.00;94195.88;6135720;23;20472;-75
2024/01/18 05:39:19;;;;;;;0.20;0.20;;;;;;;-2.44;100.00;94191.22;6136132;23;20092;-75
2024/01/18 05:42:05;;;;;;;0.20;0.20;;;;;;;-2.42;100.00;94191.78;6137247;23;20088;-75
2024/01/18 05:44:51;;;;;;;0.20;0.20;;;;;;;-2.47;100.00;94189.84;6138512;23;20029;-74
2024/01/18 05:47:37;;;;;;;0.20;0.20;;;;;;;-2.49;100.00;94201.53;6115068;23;20345;-75
2024/01/18 05:50:23;;;;;;;0.20;0.20;;;;;;;-2.51;100.00;94199.16;6135767;23;20048;-77
2024/01/18 05:53:09;;;;;;;0.20;0.20;;;;;;;-2.55;100.00;94208.50;6117274;23;20025;-76
2024/01/18 05:55:54;;;;;;;0.20;0.20;;;;;;;-2.51;100.00;94209.63;6138658;23;20389;-75
2024/01/18 05:58:40;;;;;;;0.17;0.17;;;;;;;-2.69;100.00;94205.25;6136441;23;20389;-77
2024/01/18 06:01:26;;;;;;;0.20;0.20;;;;;;;-2.67;100.00;94216.28;6131901;23;20017;-75
2024/01/18 06:04:13;;;;;;;0.20;0.20;;;;;;;-2.66;100.00;94212.63;6137918;23;20544;-78
2024/01/18 06:06:59;;;;;;;0.20;0.20;;;;;;;-2.67;100.00;94224.13;6134336;23;20350;-77
2024/01/18 06:09:44;;;;;;;0.20;0.20;;;;;;;-2.69;100.00;94223.56;6115075;23;20029;-76
2024/01/18 06:12:32;;;;;;;0.20;0.20;;;;;;;-2.69;100.00;94230.63;6136175;23;20030;-74
2024/01/18 06:15:19;;;;;;;0.20;0.20;;;;;;;-2.66;100.00;94232.78;6135202;23;20132;-74
2024/01/18 06:18:05;;;;;;;0.20;0.20;;;;;;;-2.62;100.00;94233.97;6137100;23;20021;-76
2024/01/18 06:20:50;;;;;;;0.20;0.20;;;;;;;-2.60;100.00;94232.72;6137247;23;20595;-75
2024/01/18 06:23:36;;;;;;;0.20;0.20;;;;;;;-2.59;100.00;94236.94;6136536;23;20436;-74
2024/01/18 06:26:22;;;;;;;0.20;0.20;;;;;;;-2.64;100.00;94255.13;6115413;23;20164;-75
2024/01/18 06:29:09;;;;;;;0.13;0.13;;;;;;;-2.68;100.00;94261.81;6135130;23;20433;-75
2024/01/18 06:31:55;;;;;;;0.20;0.20;;;;;;;-2.71;100.00;94259.66;6135977;23;20108;-76
2024/01/18 06:34:41;;;;;;;0.22;0.22;;;;;;;-2.68;100.00;94269.69;6135501;23;20093;-75
2024/01/18 06:37:27;;;;;;;0.20;0.20;;;;;;;-2.71;100.00;94267.50;6135597;23;20461;-74
2024/01/18 06:40:13;;;;;;;0.20;0.20;;;;;;;-2.71;100.00;94277.97;6138304;23;20047;-77
2024/01/18 06:43:00;;;;;;;0.20;0.20;;;;;;;-2.71;100.00;94277.19;6134589;23;20021;-75
2024/01/18 06:45:45;;;;;;;0.20;0.20;;;;;;;-2.82;100.00;94279.50;6137716;23;20080;-75
2024/01/18 06:48:31;;;;;;;0.20;0.20;;;;;;;-2.75;100.00;94271.56;6114256;23;20025;-77
2024/01/18 06:51:17;;;;;;;0.20;0.20;;;;;;;-2.76;100.00;94274.41;6135717;23;20096;-75
2024/01/18 06:54:03;;;;;;;0.20;0.20;;;;;;;-2.84;100.00;94280.72;6133140;23;20108;-77
2024/01/18 06:56:49;;;;;;;0.20;0.20;;;;;;;-2.82;100.00;94282.09;6136362;23;20362;-75
2024/01/18 06:59:35;;;;;;;0.20;0.20;;;;;;;-2.76;100.00;94296.16;6137150;23;20583;-75
2024/01/18 07:02:21;;;;;;;0.20;0.20;;;;;;;-2.81;100.00;94301.22;6133711;23;20523;-77
2024/01/18 07:05:07;;;;;;;0.22;0.22;;;;;;;-2.82;100.00;94284.72;6136944;23;20031;-74
2024/01/18 07:07:54;;;;;;;0.20;0.20;;;;;;;-2.73;100.00;94297.53;6134727;23;20029;-75
2024/01/18 07:10:39;;;;;;;0.20;0.20;;;;;;;-2.70;100.00;94305.75;6136540;23;20461;-78
2024/01/18 07:13:26;;;;;;;0.20;0.20;;;;;;;-2.81;100.00;94320.34;6136052;23;20025;-76
2024/01/18 07:16:12;;;;;;;0.20;0.20;;;;;;;-2.87;100.00;94310.78;6138561;23;20022;-75
2024/01/18 07:18:58;;;;;;;0.20;0.20;;;;;;;-2.92;100.00;94318.47;6136428;23;20353;-74
2024/01/18 07:21:44;;;;;;;0.20;0.20;;;;;;;-2.85;100.00;94324.44;6117017;23;20056;-77
2024/01/18 07:24:30;;;;;;;0.20;0.20;;;;;;;-2.85;100.00;94316.59;6138964;23;20464;-78
2024/01/18 07:27:16;;;;;;;0.20;0.20;;;;;;;-2.84;100.00;94326.03;6138088;23;20456;-77
2024/01/18 07:30:03;;;;;;;0.20;0.20;;;;;;;-2.79;100.00;94333.25;6137514;23;20017;-78
2024/01/18 07:32:49;;;;;;;0.20;0.20;;;;;;;-2.78;100.00;94319.13;6135727;23;20119;-76
2024/01/18 07:35:37;;;;;;;0.20;0.20;;;;;;;-2.80;100.00;94323.78;6115125;23;20021;-75
2024/01/18 07:38:24;;;;;;;0.20;0.20;;;;;;;-2.72;100.00;94326.13;6136566;23;20072;-76
2024/01/18 07:41:10;;;;;;;0.20;0.20;;;;;;;-2.68;100.00;94329.09;6116922;23;20021;-78
2024/01/18 07:43:55;;;;;;;0.20;0.20;;;;;;;-2.60;100.00;94332.22;6135717;23;20025;-75
2024/01/18 07:46:41;;;;;;;0.20;0.20;;;;;;;-2.58;100.00;94330.19;6137053;23;20018;-76
2024/01/18 07:49:27;;;;;;;0.20;0.20;;;;;;;-2.58;100.00;94330.19;6136951;23;20052;-75
2024/01/18 07:52:13;;;;;;;0.20;0.20;;;;;;;-2.58;100.00;94335.41;6115526;23;20029;-74
2024/01/18 07:54:59;;;;;;;0.20;0.20;;;;;;;-2.62;100.00;94342.13;6138551;23;20060;-75
2024/01/18 07:57:45;;;;;;;0.20;0.20;;;;;;;-2.58;100.00;94345.09;6137910;23;20032;-77
2024/01/18 08:00:31;;;;;;;0.20;0.20;;;;;;;-2.60;100.00;94345.31;6136094;23;20025;-76
2024/01/18 08:03:16;;;;;;;0.20;0.20;;;;;;;-2.66;100.00;94351.41;6133879;23;20049;-75
2024/01/18 08:06:02;;;;;;;0.20;0.20;;;;;;;-2.63;100.00;94350.19;6134572;23;20408;-76
2024/01/18 08:08:48;;;;;;;0.20;0.20;;;;;;;-2.56;100.00;94350.94;6136820;23;20017;-77
2024/01/18 08:11:34;;;;;;;0.25;0.25;;;;;;;-2.60;100.00;94347.94;6135754;23;20068;-77
2024/01/18 08:14:20;;;;;;;0.20;0.20;;;;;;;-2.53;100.00;94361.75;6134863;23;20386;-75
2024/01/18 08:17:06;;;;;;;0.20;0.20;;;;;;;-2.45;100.00;94368.53;6134329;23;20365;-77
2024/01/18 08:19:51;;;;;;;0.20;0.20;;;;;;;-2.48;100.00;94371.59;6133571;23;20049;-77
2024/01/18 08:22:37;;;;;;;0.20;0.20;;;;;;;-2.42;100.00;94370.69;6136077;23;20488;-75
2024/01/18 08:25:23;;;;;;;0.20;0.20;;;;;;;-2.43;100.00;94370.91;6113326;23;20026;-75
2024/01/18 08:28:13;;;;;;;0.20;0.20;;;;;;;-2.45;100.00;94376.38;6137075;23;20056;-76
2024/01/18 08:30:59;;;;;;;0.20;0.20;;;;;;;-2.41;100.00;94382.81;6136647;23;20400;-76
2024/01/18 08:33:44;;;;;;;0.20;0.20;;;;;;;-2.41;100.00;94371.50;6135887;23;20415;-76
2024/01/18 08:36:30;;;;;;;0.20;0.20;;;;;;;-2.43;100.00;94378.78;6134670;23;20301;-75
2024/01/18 08:39:16;;;;;;;0.20;0.20;;;;;;;-2.43;100.00;94378.78;6137171;23;20017;-77
2024/01/18 08:42:02;;;;;;;0.20;0.20;;;;;;;-2.41;100.00;94381.97;6117837;23;20017;-75
2024/01/18 08:44:50;;;;;;;0.20;0.20;;;;;;;-2.26;100.00;94385.03;6136053;23;20109;-74
2024/01/18 08:47:36;;;;;;;0.20;0.20;;;;;;;-2.09;100.00;94387.88;6136452;23;20088;-76
2024/01/18 08:50:23;;;;;;;0.20;0.20;;;;;;;-2.10;100.00;94405.44;6135729;23;20018;-75
2024/01/18 08:53:09;;;;;;;0.20;0.20;;;;;;;-1.98;100.00;94403.66;6114919;23;20017;-76
2024/01/18 08:55:55;;;;;;;0.25;0.25;;;;;;;-1.85;100.00;94412.38;6116197;23;20021;-77
2024/01/18 08:58:41;;;;;;;0.20;0.20;;;;;;;-1.80;100.00;94409.88;6134451;23;20045;-76
2024/01/18 09:01:29;;;;;;;0.20;0.20;;;;;;;-1.76;100.00;94408.44;6135059;23;20018;-76
2024/01/18 09:04:17;;;;;;;0.20;0.20;;;;;;;-1.81;100.00;94422.19;6114789;23;20056;-77
2024/01/18 09:07:03;;;;;;;0.20;0.20;;;;;;;-1.71;100.00;94425.13;6136587;23;20183;-75
2024/01/18 09:09:50;;;;;;;0.20;0.20;;;;;;;-1.64;100.00;94440.75;6093576;23;20279;-75
2024/01/18 09:12:36;;;;;;;0.20;0.20;;;;;;;-1.44;100.00;94432.63;6113296;23;20024;-74
2024/01/18 09:15:23;;;;;;;0.20;0.20;;;;;;;-1.32;100.00;94433.47;6134407;23;20310;-76
2024/01/18 09:18:08;;;;;;;0.20;0.20;;;;;;;-1.32;100.00;94440.50;6136823;23;20504;-73
2024/01/18 09:20:54;;;;;;;0.20;0.20;;;;;;;-1.42;100.00;94459.44;6136231;23;20035;-74
2024/01/18 09:23:40;;;;;;;0.20;0.20;;;;;;;-1.46;100.00;94453.03;6132268;23;20044;-74
2024/01/18 09:26:26;;;;;;;0.20;0.20;;;;;;;-1.39;100.00;94481.81;6131865;23;20762;-75
2024/01/18 09:29:12;;;;;;;0.20;0.20;;;;;;;-1.37;100.00;94479.75;6127304;23;20032;-76
2024/01/18 09:31:57;;;;;;;0.20;0.20;;;;;;;-1.33;100.00;94491.41;6131627;23;20024;-75
2024/01/18 09:34:43;;;;;;;0.20;0.20;;;;;;;-1.25;100.00;94493.72;6135108;23;20052;-76
2024/01/18 09:37:29;;;;;;;0.20;0.20;;;;;;;-1.20;100.00;94483.34;6134332;23;20326;-74
2024/01/18 09:40:15;;;;;;;0.20;0.20;;;;;;;-1.04;100.00;94481.94;6135411;23;20025;-75
2024/01/18 09:43:07;;;;;;;0.20;0.20;;;;;;;-0.90;100.00;94494.63;6135332;23;20171;-77
2024/01/18 09:45:57;;;;;;;0.20;0.20;;;;;;;-0.81;100.00;94507.44;6133961;23;20154;-75
2024/01/18 09:48:44;;;;;;;0.20;0.20;;;;;;;-0.82;100.00;94506.66;6133623;23;20100;-74
2024/01/18 09:51:30;;;;;;;0.20;0.20;;;;;;;-0.72;100.00;94516.59;6136507;23;20036;-75
2024/01/18 09:54:17;;;;;;;0.20;0.20;;;;;;;-0.66;100.00;94531.47;6135439;23;20303;-76
2024/01/18 09:57:06;;;;;;;0.20;0.20;;;;;;;-0.69;100.00;94539.81;6134528;23;20112;-77
2024/01/18 09:59:59;;;;;;;0.20;0.20;;;;;;;-0.75;100.00;94561.72;6135781;23;20029;-75
2024/01/18 10:02:45;;;;;;;0.20;0.20;;;;;;;-0.63;100.00;94552.03;6111167;23;20472;-73
2024/01/18 10:05:31;;;;;;;0.20;0.20;;;;;;;-0.63;100.00;94549.38;6112578;23;20017;-74
2024/01/18 10:08:17;;;;;;;0.20;0.20;;;;;;;-0.85;100.00;94560.44;6133643;23;20380;-76
2024/01/18 10:11:03;;;;;;;0.20;0.20;;;;;;;-1.49;100.00;94563.66;6072825;23;20584;-76
2024/01/18 10:13:56;;;;;;;0.20;0.20;;;;;;;-1.17;100.00;94572.16;6132821;23;20592;-73
2024/01/18 10:16:42;;;;;;;0.20;0.20;;;;;;;-0.79;100.00;94563.16;6130568;23;20127;-74
2024/01/18 10:19:28;;;;;;;0.20;0.20;;;;;;;-0.59;100.00;94558.44;6137189;23;20021;-75
2024/01/18 10:22:14;;;;;;;0.20;0.20;;;;;;;-0.47;100.00;94576.84;6136227;23;20021;-75
2024/01/18 10:25:00;;;;;;;0.20;0.20;;;;;;;-0.68;100.00;94583.44;6136462;23;20519;-76
2024/01/18 10:27:45;;;;;;;0.20;0.20;;;;;;;-1.01;100.00;94576.81;6136752;23;20017;-74
2024/01/18 10:30:36;;;;;;;0.20;0.20;;;;;;;-1.46;100.00;94586.84;6132463;23;20022;-74
2024/01/18 10:33:22;;;;;;;0.20;0.20;;;;;;;-1.46;100.00;94598.13;6128066;23;20260;-75
2024/01/18 10:36:08;;;;;;;0.20;0.20;;;;;;;-1.46;100.00;94598.13;6134587;23;20130;-74
2024/01/18 10:38:54;;;;;;;0.20;0.20;;;;;;;-1.05;100.00;94603.72;6134850;23;20454;-75
2024/01/18 10:41:40;;;;;;;0.20;0.20;;;;;;;-0.36;100.00;94605.78;6134338;23;20021;-75
2024/01/18 10:44:26;;;;;;;0.20;0.20;;;;;;;0.25;100.00;94607.25;6135565;23;20076;-74
2024/01/18 10:47:14;;;;;;;0.20;0.20;;;;;;;0.58;100.00;94608.47;6136706;23;20453;-74
2024/01/18 10:50:01;;;;;;;0.20;0.20;;;;;;;0.90;100.00;94614.13;6130537;23;20444;-76
2024/01/18 10:52:49;;;;;;;0.20;0.20;;;;;;;1.07;100.00;94614.19;6135524;23;20032;-75
2024/01/18 10:55:35;;;;;;;0.22;0.22;;;;;;;2.14;100.00;94619.53;6137342;23;20053;-76
2024/01/18 10:58:23;;;;;;;0.20;0.20;;;;;;;1.51;100.00;94628.47;6135915;23;20032;-76
2024/01/18 11:01:09;;;;;;;0.20;0.20;;;;;;;1.35;100.00;94631.88;6136885;23;20026;-76
2024/01/18 11:03:55;;;;;;;0.20;0.20;;;;;;;0.69;100.00;94628.69;6136268;23;20029;-76
2024/01/18 11:06:44;;;;;;;0.20;0.20;;;;;;;0.95;100.00;94634.53;6136178;23;20021;-75
2024/01/18 11:09:30;;;;;;;0.30;0.30;;;;;;;0.91;100.00;94638.63;6096467;23;20025;-77
2024/01/18 11:12:16;;;;;;;0.20;0.20;;;;;;;1.01;100.00;94646.75;6132586;23;20022;-74
2024/01/18 11:15:04;;;;;;;0.20;0.20;;;;;;;1.13;100.00;94650.16;6134262;23;20022;-75
2024/01/18 11:17:58;;;;;;;0.20;0.20;;;;;;;0.49;100.00;94651.97;6117478;23;20026;-77
2024/01/18 11:21:06;;;;;;;0.30;0.30;;;;;;;1.04;100.00;94664.72;6138081;23;20421;-75
2024/01/18 11:23:52;;;;;;;0.20;0.20;;;;;;;1.19;100.00;94670.31;6138300;23;20028;-75
2024/01/18 11:26:38;;;;;;;0.20;0.20;;;;;;;1.61;100.00;94665.56;6137263;23;20029;-76
2024/01/18 11:29:26;;;;;;;0.20;0.20;;;;;;;0.83;100.00;94668.75;6135764;23;20029;-76
2024/01/18 11:32:16;;;;;;;0.20;0.20;;;;;;;0.77;100.00;94677.56;6131407;23;20113;-76
2024/01/18 11:35:10;;;;;;;0.20;0.20;;;;;;;0.82;100.00;94686.41;6134608;23;20029;-75
2024/01/18 11:38:21;;;;;;;0.20;0.20;;;;;;;1.42;100.00;94687.88;6136605;23;20025;-75
2024/01/18 11:41:18;;;;;;;0.20;0.20;;;;;;;1.07;100.00;94701.94;6136644;23;20104;-77
2024/01/18 11:44:10;;;;;;;0.17;0.17;;;;;;;-0.16;100.00;94707.22;6134730;23;20506;-76
2024/01/18 11:46:57;;;;;;;0.20;0.20;;;;;;;-0.46;100.00;94715.91;6136159;23;20029;-75
2024/01/18 11:49:43;;;;;;;0.22;0.22;;;;;;;-0.12;100.00;94722.31;6114495;23;20029;-75
2024/01/18 11:52:32;;;;;;;0.20;0.20;;;;;;;-0.22;100.00;94723.91;6135263;23;20033;-74
2024/01/18 11:55:18;;;;;;;0.30;0.30;;;;;;;1.59;100.00;94716.94;6134706;23;20237;-75
2024/01/18 11:58:04;;;;;;;0.68;0.50;;;;;;;2.11;100.00;94725.56;6133418;23;20095;-76
2024/01/18 12:00:50;;;;;;;0.28;0.28;;;;;;;3.52;100.00;94719.19;6135843;23;20104;-76
2024/01/18 12:03:36;;;;;;;0.20;0.20;;;;;;;3.32;100.00;94714.44;6134354;23;20017;-75
2024/01/18 12:06:28;;;;;;;0.30;0.30;;;;;;;4.66;100.00;94705.72;6137061;23;20644;-78
2024/01/18 12:09:15;;;;;;;0.20;0.20;;;;;;;7.49;100.00;94721.84;6116767;23;20331;-78
2024/01/18 12:12:02;;;;;;;0.30;0.30;;;;;;;8.82;91.77;94707.81;6112652;23;20490;-78
2024/01/18 12:14:48;;;;;;;0.30;0.30;;;;;;;10.14;67.73;94698.38;6072641;23;20697;-76
2024/01/18 12:17:34;;;;;;;0.30;0.30;;;;;;;11.94;56.01;94714.72;6135019;23;20033;-74
2024/01/18 12:20:20;;;;;;;0.38;0.38;;;;;;;13.67;47.60;94709.91;6116293;23;20025;-75
2024/01/18 12:23:13;;;;;;;0.40;0.40;;;;;;;14.96;39.41;94713.97;6136829;23;20030;-77
2024/01/18 12:25:59;;;;;;;0.28;0.28;;;;;;;14.55;39.73;94711.72;6131307;23;20116;-75
2024/01/18 12:28:46;;;;;;;0.22;0.22;;;;;;;13.49;37.62;94714.41;6131673;23;20029;-76
2024/01/18 12:31:34;;;;;;;0.32;0.32;;;;;;;12.06;51.98;94719.59;6134011;23;20341;-77
2024/01/18 12:34:20;;;;;;;0.38;0.38;;;;;;;12.52;45.39;94732.00;6134514;23;20025;-77
2024/01/18 12:37:06;;;;;;;0.20;0.20;;;;;;;13.85;45.71;94729.56;6131946;23;20092;-77
2024/01/18 12:39:52;;;;;;;0.20;0.20;;;;;;;14.84;40.27;94741.53;6135942;23;20487;-77
2024/01/18 12:42:38;;;;;;;0.20;0.20;;;;;;;11.60;42.74;94749.13;6135599;23;20032;-78
2024/01/18 12:45:24;;;;;;;0.20;0.20;;;;;;;11.12;50.01;94754.72;6135729;23;20033;-76
2024/01/18 12:48:11;;;;;;;0.20;0.20;;;;;;;9.95;61.73;94748.31;6134911;23;20030;-76
2024/01/18 12:50:57;;;;;;;0.25;0.25;;;;;;;9.20;62.83;94757.66;6130570;23;20032;-77
2024/01/18 12:53:43;;;;;;;0.20;0.20;;;;;;;8.37;74.66;94771.03;6133073;23;20028;-76
2024/01/18 12:56:29;;;;;;;0.20;0.20;;;;;;;7.29;84.68;94775.09;6135643;23;20025;-74